createdAt,value
2023-05-04T00:01:32.118Z,11.24
2023-05-04T00:04:00.087Z,11.15
2023-05-04T00:06:28.243Z,10.99
2023-05-04T00:08:56.397Z,10.98
2023-05-04T00:11:24.487Z,10.98
2023-05-04T00:13:52.583Z,10.99
2023-05-04T00:16:20.653Z,10.97
2023-05-04T00:18:48.613Z,10.92
2023-05-04T00:21:16.590Z,10.82
2023-05-04T00:23:44.440Z,10.79
2023-05-04T00:26:12.445Z,10.70
2023-05-04T00:28:40.941Z,10.67
2023-05-04T00:31:08.883Z,10.59
2023-05-04T00:33:36.799Z,10.49
2023-05-04T00:36:04.834Z,10.39
2023-05-04T00:38:35.625Z,10.30
2023-05-04T00:41:03.527Z,10.26
2023-05-04T00:43:31.600Z,10.23
2023-05-04T00:45:59.915Z,10.19
2023-05-04T00:48:27.905Z,10.12
2023-05-04T00:50:56.189Z,10.05
2023-05-04T00:53:24.177Z,10.02
2023-05-04T00:55:52.175Z,10.01
2023-05-04T00:58:21.970Z,9.98
2023-05-04T01:00:50.228Z,9.97
2023-05-04T01:03:18.705Z,9.95
2023-05-04T01:05:53.409Z,9.91
2023-05-04T01:08:24.132Z,9.91
2023-05-04T01:10:56.801Z,9.89
2023-05-04T01:13:25.227Z,9.81
2023-05-04T01:15:53.457Z,9.75
2023-05-04T01:18:23.501Z,9.73
2023-05-04T01:20:51.670Z,9.76
2023-05-04T01:23:20.902Z,9.81
2023-05-04T01:25:53.756Z,9.89
2023-05-04T01:28:27.699Z,9.97
2023-05-04T01:30:59.576Z,10.04
2023-05-04T01:33:28.840Z,10.09
2023-05-04T01:35:57.027Z,10.07
2023-05-04T01:38:26.851Z,10.09
2023-05-04T01:40:54.839Z,10.10
2023-05-04T01:43:23.112Z,10.13
2023-05-04T01:45:51.123Z,10.14
2023-05-04T01:48:19.109Z,10.06
2023-05-04T01:50:47.231Z,9.96
2023-05-04T01:53:15.112Z,9.84
2023-05-04T01:55:43.085Z,9.80
2023-05-04T01:58:11.405Z,9.77
2023-05-04T02:00:39.543Z,9.78
2023-05-04T02:03:09.595Z,9.85
2023-05-04T02:05:38.060Z,9.88
2023-05-04T02:08:06.068Z,9.86
2023-05-04T02:10:34.168Z,9.86
2023-05-04T02:13:02.297Z,9.85
2023-05-04T02:15:31.190Z,9.83
2023-05-04T02:17:59.127Z,9.82
2023-05-04T02:20:27.101Z,9.80
2023-05-04T02:22:55.334Z,9.76
2023-05-04T02:25:23.646Z,9.72
2023-05-04T02:27:51.903Z,9.75
2023-05-04T02:30:19.972Z,9.79
2023-05-04T02:32:47.922Z,9.80
2023-05-04T02:35:16.539Z,9.84
2023-05-04T02:37:44.722Z,9.89
2023-05-04T02:40:12.998Z,9.93
2023-05-04T02:42:40.915Z,9.97
2023-05-04T02:45:09.262Z,10.01
2023-05-04T02:47:37.207Z,10.07
2023-05-04T02:50:05.734Z,10.10
2023-05-04T02:52:34.023Z,10.13
2023-05-04T02:55:03.449Z,10.20
2023-05-04T02:57:31.424Z,10.25
2023-05-04T02:59:59.499Z,10.32
2023-05-04T03:02:27.487Z,10.31
2023-05-04T03:04:55.965Z,10.37
2023-05-04T03:07:24.023Z,10.42
2023-05-04T03:09:52.001Z,10.46
2023-05-04T03:12:20.179Z,10.53
2023-05-04T03:14:48.146Z,10.53
2023-05-04T03:17:16.616Z,10.55
2023-05-04T03:19:44.954Z,10.62
2023-05-04T03:22:13.621Z,10.66
2023-05-04T03:24:41.619Z,10.64
2023-05-04T03:27:09.883Z,10.69
2023-05-04T03:29:38.434Z,10.73
2023-05-04T03:32:07.328Z,10.75
2023-05-04T03:34:35.951Z,10.79
2023-05-04T03:37:05.665Z,10.77
2023-05-04T03:39:33.853Z,10.79
2023-05-04T03:42:02.744Z,10.81
2023-05-04T03:44:30.728Z,10.82
2023-05-04T03:46:59.019Z,10.83
2023-05-04T03:49:27.391Z,10.88
2023-05-04T03:51:55.463Z,10.88
2023-05-04T03:54:23.961Z,10.90
2023-05-04T03:56:52.147Z,10.92
2023-05-04T03:59:20.095Z,10.93
2023-05-04T04:01:48.507Z,10.93
2023-05-04T04:04:16.527Z,10.82
2023-05-04T04:06:44.982Z,10.76
2023-05-04T04:09:13.864Z,10.72
2023-05-04T04:11:41.962Z,10.75
2023-05-04T04:14:10.069Z,10.75
2023-05-04T04:16:39.320Z,10.77
2023-05-04T04:19:08.235Z,10.76
2023-05-04T04:21:36.302Z,10.82
2023-05-04T04:24:04.314Z,10.84
2023-05-04T04:26:32.555Z,10.92
2023-05-04T04:29:00.456Z,10.96
2023-05-04T04:31:28.618Z,11.01
2023-05-04T04:33:56.672Z,11.06
2023-05-04T04:36:24.782Z,11.10
2023-05-04T04:38:52.625Z,11.11
2023-05-04T04:41:20.608Z,11.14
2023-05-04T04:43:48.731Z,11.22
2023-05-04T04:46:16.988Z,11.27
2023-05-04T04:48:45.272Z,11.16
2023-05-04T04:51:13.644Z,11.07
2023-05-04T04:53:41.800Z,10.99
2023-05-04T04:56:09.975Z,10.97
2023-05-04T04:58:37.974Z,11.05
2023-05-04T05:01:06.189Z,11.12
2023-05-04T05:03:34.342Z,11.18
2023-05-04T05:06:02.729Z,11.25
2023-05-04T05:08:32.545Z,11.32
2023-05-04T05:11:00.989Z,11.34
2023-05-04T05:13:30.896Z,11.41
2023-05-04T05:15:58.837Z,11.46
2023-05-04T05:18:27.155Z,11.58
2023-05-04T05:20:55.548Z,11.69
2023-05-04T05:23:23.589Z,11.82
2023-05-04T05:25:51.891Z,11.99
2023-05-04T05:28:20.199Z,12.03
2023-05-04T05:30:49.697Z,12.20
2023-05-04T05:33:18.095Z,12.45
2023-05-04T05:35:46.170Z,12.64
2023-05-04T05:38:16.227Z,12.78
2023-05-04T05:40:44.520Z,12.84
2023-05-04T05:43:12.585Z,12.99
2023-05-04T05:45:40.716Z,13.04
2023-05-04T05:48:08.803Z,13.16
2023-05-04T05:50:36.848Z,13.28
2023-05-04T05:53:04.803Z,13.36
2023-05-04T05:55:33.169Z,13.41
2023-05-04T05:58:01.061Z,13.44
2023-05-04T06:00:29.250Z,13.38
2023-05-04T06:02:57.352Z,13.39
2023-05-04T06:05:25.457Z,13.43
2023-05-04T06:07:53.454Z,13.52
2023-05-04T06:10:21.479Z,13.53
2023-05-04T06:12:49.683Z,13.49
2023-05-04T06:15:18.212Z,13.62
2023-05-04T06:17:46.385Z,13.65
2023-05-04T06:20:15.433Z,13.72
2023-05-04T06:22:43.594Z,13.64
2023-05-04T06:25:11.963Z,13.74
2023-05-04T06:27:40.165Z,13.63
2023-05-04T06:30:08.627Z,13.70
2023-05-04T06:32:37.329Z,13.84
2023-05-04T06:35:06.303Z,13.72
2023-05-04T06:37:34.569Z,13.77
2023-05-04T06:40:04.081Z,13.59
2023-05-04T06:42:32.353Z,13.64
2023-05-04T06:45:00.627Z,13.44
2023-05-04T06:47:28.607Z,13.52
2023-05-04T06:49:56.717Z,13.64
2023-05-04T06:52:24.762Z,13.67
2023-05-04T06:54:53.188Z,13.77
2023-05-04T06:57:21.435Z,13.85
2023-05-04T06:59:49.466Z,13.95
2023-05-04T07:02:17.537Z,14.12
2023-05-04T07:04:45.745Z,14.25
2023-05-04T07:07:13.648Z,14.40
2023-05-04T07:09:42.263Z,14.61
2023-05-04T07:12:10.308Z,14.76
2023-05-04T07:14:38.363Z,14.86
2023-05-04T07:17:06.519Z,15.03
2023-05-04T07:19:34.657Z,15.12
2023-05-04T07:22:02.586Z,15.46
2023-05-04T07:24:30.813Z,15.62
2023-05-04T07:26:58.871Z,15.79
2023-05-04T07:29:26.836Z,16.21
2023-05-04T07:31:54.779Z,16.51
2023-05-04T07:34:30.228Z,16.77
2023-05-04T07:37:05.599Z,17.02
2023-05-04T07:39:35.310Z,17.10
2023-05-04T07:42:04.204Z,17.30
2023-05-04T07:44:32.369Z,17.14
2023-05-04T07:47:00.974Z,17.20
2023-05-04T07:49:28.994Z,17.20
2023-05-04T07:51:57.350Z,17.31
2023-05-04T07:54:25.603Z,17.54
2023-05-04T07:56:53.898Z,17.64
2023-05-04T07:59:21.825Z,17.94
2023-05-04T08:01:49.820Z,18.18
2023-05-04T08:04:17.978Z,18.29
2023-05-04T08:06:46.585Z,18.33
2023-05-04T08:09:14.892Z,18.28
2023-05-04T08:11:43.709Z,18.14
2023-05-04T08:14:11.794Z,18.11
2023-05-04T08:16:40.002Z,18.12
2023-05-04T08:19:08.182Z,18.23
2023-05-04T08:21:36.098Z,18.26
2023-05-04T08:24:04.542Z,18.29
2023-05-04T08:26:32.539Z,18.36
2023-05-04T08:29:07.651Z,18.37
2023-05-04T08:31:36.207Z,18.45
2023-05-04T08:34:04.381Z,18.39
2023-05-04T08:36:32.544Z,18.26
2023-05-04T08:39:00.953Z,18.23
2023-05-04T08:41:29.669Z,18.23
2023-05-04T08:43:58.543Z,18.25
2023-05-04T08:46:30.881Z,18.09
2023-05-04T08:48:58.878Z,18.18
2023-05-04T08:51:27.414Z,18.21
2023-05-04T08:53:56.481Z,18.17
2023-05-04T08:56:24.918Z,18.18
2023-05-04T08:58:53.141Z,18.12
2023-05-04T09:01:22.281Z,17.86
2023-05-04T09:03:51.689Z,17.86
2023-05-04T09:06:20.017Z,18.04
2023-05-04T09:08:47.940Z,18.11
2023-05-04T09:11:16.193Z,18.33
2023-05-04T09:13:44.243Z,18.51
2023-05-04T09:16:14.648Z,18.67
2023-05-04T09:18:43.887Z,18.89
2023-05-04T09:21:12.474Z,18.99
2023-05-04T09:23:47.174Z,19.08
2023-05-04T09:26:15.978Z,19.31
2023-05-04T09:28:43.933Z,19.40
2023-05-04T09:31:12.115Z,19.55
2023-05-04T09:33:40.649Z,19.53
2023-05-04T09:36:18.963Z,19.52
2023-05-04T09:38:46.916Z,19.56
2023-05-04T09:41:15.007Z,19.77
2023-05-04T09:43:44.024Z,19.41
2023-05-04T09:46:21.940Z,19.37
2023-05-04T09:48:50.597Z,19.28
2023-05-04T09:51:21.218Z,18.91
2023-05-04T09:53:52.833Z,19.12
2023-05-04T09:56:26.908Z,19.51
2023-05-04T09:58:58.867Z,19.83
2023-05-04T10:01:30.185Z,20.08
2023-05-04T10:03:58.628Z,20.19
2023-05-04T10:06:28.874Z,20.30
2023-05-04T10:08:59.064Z,20.26
2023-05-04T10:11:27.791Z,20.25
2023-05-04T10:13:59.299Z,20.01
2023-05-04T10:16:41.624Z,19.96
2023-05-04T10:19:35.876Z,20.15
2023-05-04T10:22:22.791Z,20.54
2023-05-04T10:24:50.741Z,20.76
2023-05-04T10:27:21.597Z,20.58
2023-05-04T10:29:51.567Z,20.81
2023-05-04T10:32:22.234Z,20.99
2023-05-04T10:34:53.420Z,20.57
2023-05-04T10:37:22.720Z,20.73
2023-05-04T10:39:51.776Z,20.96
2023-05-04T10:42:20.183Z,21.05
2023-05-04T10:44:55.486Z,21.05
2023-05-04T10:47:33.335Z,20.94
2023-05-04T10:50:01.840Z,20.49
2023-05-04T10:52:30.646Z,20.59
2023-05-04T10:55:02.089Z,20.79
2023-05-04T10:57:31.272Z,20.93
2023-05-04T10:59:59.317Z,20.82
2023-05-04T11:02:28.865Z,20.93
2023-05-04T11:04:59.976Z,21.04
2023-05-04T11:07:37.493Z,21.12
2023-05-04T11:10:08.450Z,21.16
2023-05-04T11:12:37.971Z,21.27
2023-05-04T11:15:12.270Z,21.46
2023-05-04T11:17:47.505Z,21.70
2023-05-04T11:20:23.008Z,21.83
2023-05-04T11:22:51.330Z,21.76
2023-05-04T11:25:28.917Z,21.75
2023-05-04T11:27:57.385Z,21.39
2023-05-04T11:30:35.250Z,20.73
2023-05-04T11:33:05.313Z,20.60
2023-05-04T11:35:33.370Z,20.25
2023-05-04T11:38:01.329Z,20.24
2023-05-04T11:40:29.275Z,20.16
2023-05-04T11:42:58.450Z,19.66
2023-05-04T11:45:33.781Z,19.41
2023-05-04T11:48:02.344Z,19.41
2023-05-04T11:50:31.597Z,19.45
2023-05-04T11:53:06.611Z,19.53
2023-05-04T11:55:35.612Z,19.33
2023-05-04T11:58:04.818Z,19.37
2023-05-04T12:00:44.570Z,19.36
2023-05-04T12:03:14.371Z,19.32
2023-05-04T12:05:49.411Z,19.19
2023-05-04T12:08:26.175Z,19.15
2023-05-04T12:11:14.985Z,19.08
2023-05-04T12:13:44.677Z,19.16
2023-05-04T12:16:15.573Z,19.14
2023-05-04T12:18:45.472Z,19.10
2023-05-04T12:21:15.683Z,18.89
2023-05-04T12:23:44.215Z,19.07
2023-05-04T12:26:13.066Z,19.00
2023-05-04T12:28:42.138Z,19.06
2023-05-04T12:31:10.335Z,19.00
2023-05-04T12:33:38.660Z,18.92
2023-05-04T12:36:06.950Z,18.93
2023-05-04T12:38:34.868Z,19.02
2023-05-04T12:41:04.571Z,19.06
2023-05-04T12:43:33.311Z,19.06
2023-05-04T12:46:01.359Z,19.18
2023-05-04T12:48:32.130Z,19.19
2023-05-04T12:51:01.375Z,19.30
2023-05-04T12:53:31.966Z,19.37
2023-05-04T12:56:00.736Z,19.57
2023-05-04T12:58:28.853Z,19.71
2023-05-04T13:00:58.104Z,19.71
2023-05-04T13:03:27.020Z,19.50
2023-05-04T13:05:55.108Z,19.43
2023-05-04T13:08:23.774Z,19.69
2023-05-04T13:10:52.360Z,19.82
2023-05-04T13:13:23.131Z,19.86
2023-05-04T13:15:51.902Z,19.71
2023-05-04T13:18:20.064Z,20.01
2023-05-04T13:20:48.505Z,20.19
2023-05-04T13:23:16.795Z,20.14
2023-05-04T13:25:44.747Z,20.17
2023-05-04T13:28:12.822Z,20.13
2023-05-04T13:30:40.790Z,19.97
2023-05-04T13:33:20.724Z,20.10
2023-05-04T13:35:49.676Z,20.18
2023-05-04T13:38:18.054Z,19.97
2023-05-04T13:40:46.406Z,19.89
2023-05-04T13:43:14.812Z,19.81
2023-05-04T13:45:43.286Z,19.54
2023-05-04T13:48:12.033Z,19.28
2023-05-04T13:50:40.655Z,19.26
2023-05-04T13:53:11.224Z,19.16
2023-05-04T13:55:39.443Z,19.05
2023-05-04T13:58:08.049Z,19.07
2023-05-04T14:00:36.356Z,19.00
2023-05-04T14:03:05.381Z,18.78
2023-05-04T14:05:35.809Z,18.61
2023-05-04T14:08:04.561Z,18.62
2023-05-04T14:10:33.153Z,18.55
2023-05-04T14:13:02.601Z,18.57
2023-05-04T14:15:32.268Z,18.38
2023-05-04T14:18:00.508Z,18.22
2023-05-04T14:20:28.561Z,18.25
2023-05-04T14:22:56.612Z,18.25
2023-05-04T14:25:24.559Z,18.10
2023-05-04T14:27:52.488Z,18.15
2023-05-04T14:30:20.513Z,18.16
2023-05-04T14:32:51.449Z,17.90
2023-05-04T14:35:19.515Z,17.97
2023-05-04T14:37:49.707Z,18.10
2023-05-04T14:40:18.117Z,18.06
2023-05-04T14:42:47.320Z,18.06
2023-05-04T14:45:15.369Z,18.14
2023-05-04T14:47:43.367Z,18.12
2023-05-04T14:50:12.091Z,18.11
2023-05-04T14:52:40.265Z,18.21
2023-05-04T14:55:09.094Z,18.20
2023-05-04T14:57:37.226Z,18.22
2023-05-04T15:00:09.586Z,18.19
2023-05-04T15:02:40.520Z,18.06
2023-05-04T15:05:12.729Z,18.05
2023-05-04T15:07:41.111Z,18.03
2023-05-04T15:10:10.236Z,18.11
2023-05-04T15:12:39.684Z,18.24
2023-05-04T15:15:08.195Z,18.41
2023-05-04T15:17:36.202Z,18.41
2023-05-04T15:20:05.265Z,18.51
2023-05-04T15:22:33.442Z,18.48
2023-05-04T15:25:02.123Z,18.53
2023-05-04T15:27:30.623Z,18.31
2023-05-04T15:29:58.560Z,18.29
2023-05-04T15:32:26.849Z,18.06
2023-05-04T15:35:04.421Z,18.00
2023-05-04T15:37:33.789Z,17.91
2023-05-04T15:40:02.839Z,17.78
2023-05-04T15:42:31.228Z,17.55
2023-05-04T15:44:59.412Z,17.49
2023-05-04T15:47:27.439Z,17.31
2023-05-04T15:49:55.413Z,17.22
2023-05-04T15:52:24.094Z,17.21
2023-05-04T15:54:51.947Z,17.04
2023-05-04T15:57:19.873Z,17.02
2023-05-04T15:59:49.942Z,17.12
2023-05-04T16:02:18.044Z,17.19
2023-05-04T16:04:46.237Z,16.94
2023-05-04T16:07:14.172Z,16.92
2023-05-04T16:09:42.191Z,16.76
2023-05-04T16:12:10.134Z,16.83
2023-05-04T16:14:38.098Z,16.83
2023-05-04T16:17:07.473Z,16.82
2023-05-04T16:19:35.806Z,16.73
2023-05-04T16:22:03.875Z,16.73
2023-05-04T16:24:32.475Z,16.52
2023-05-04T16:27:00.729Z,16.39
2023-05-04T16:29:28.715Z,16.21
2023-05-04T16:31:57.044Z,16.06
2023-05-04T16:34:25.070Z,15.95
2023-05-04T16:36:53.051Z,16.02
2023-05-04T16:39:22.554Z,16.22
2023-05-04T16:41:50.506Z,16.59
2023-05-04T16:44:18.384Z,17.21
2023-05-04T16:46:46.558Z,17.66
2023-05-04T16:49:14.945Z,18.13
2023-05-04T16:51:43.534Z,18.49
2023-05-04T16:54:11.429Z,18.15
2023-05-04T16:56:39.442Z,17.89
2023-05-04T16:59:07.367Z,17.97
2023-05-04T17:01:35.849Z,17.87
2023-05-04T17:04:04.212Z,17.57
2023-05-04T17:06:32.339Z,17.24
2023-05-04T17:09:00.398Z,17.02
2023-05-04T17:11:28.732Z,16.52
2023-05-04T17:13:56.764Z,16.25
2023-05-04T17:16:24.833Z,15.69
2023-05-04T17:18:52.791Z,15.49
2023-05-04T17:21:20.958Z,15.29
2023-05-04T17:23:48.956Z,15.15
2023-05-04T17:26:16.908Z,14.86
2023-05-04T17:28:44.928Z,14.71
2023-05-04T17:31:13.460Z,14.48
2023-05-04T17:33:41.506Z,14.34
2023-05-04T17:36:12.184Z,14.19
2023-05-04T17:38:41.291Z,14.00
2023-05-04T17:41:12.366Z,13.88
2023-05-04T17:43:40.480Z,13.70
2023-05-04T17:46:08.452Z,13.57
2023-05-04T17:48:36.843Z,13.39
2023-05-04T17:51:08.991Z,13.30
2023-05-04T17:53:36.881Z,13.13
2023-05-04T17:56:05.099Z,13.01
2023-05-04T17:58:33.339Z,12.84
2023-05-04T18:01:02.141Z,12.76
2023-05-04T18:03:30.229Z,12.66
2023-05-04T18:05:58.378Z,12.55
2023-05-04T18:08:26.369Z,12.49
2023-05-04T18:10:54.756Z,12.34
2023-05-04T18:13:22.908Z,12.26
2023-05-04T18:15:51.129Z,12.15
2023-05-04T18:18:19.182Z,12.06
2023-05-04T18:20:47.160Z,11.98
2023-05-04T18:23:15.136Z,11.89
2023-05-04T18:25:42.996Z,11.78
2023-05-04T18:28:11.101Z,11.67
2023-05-04T18:30:39.049Z,11.64
2023-05-04T18:33:07.180Z,11.58
2023-05-04T18:35:35.352Z,11.52
2023-05-04T18:38:03.570Z,11.43
2023-05-04T18:40:32.198Z,11.41
2023-05-04T18:43:00.378Z,11.38
2023-05-04T18:45:28.569Z,11.37
2023-05-04T18:47:56.617Z,11.35
2023-05-04T18:50:24.895Z,11.29
2023-05-04T18:52:54.222Z,11.28
2023-05-04T18:55:22.372Z,11.23
2023-05-04T18:57:50.900Z,11.21
2023-05-04T19:00:18.861Z,11.22
2023-05-04T19:02:46.847Z,11.27
2023-05-04T19:05:15.148Z,11.30
2023-05-04T19:07:43.116Z,11.33
2023-05-04T19:10:11.573Z,11.35
2023-05-04T19:12:39.534Z,11.37
2023-05-04T19:15:07.932Z,11.36
2023-05-04T19:17:36.047Z,11.31
2023-05-04T19:20:04.347Z,11.27
2023-05-04T19:22:32.435Z,11.21
2023-05-04T19:25:00.454Z,11.16
2023-05-04T19:27:28.533Z,11.16
2023-05-04T19:29:56.705Z,11.15
2023-05-04T19:32:25.237Z,11.09
2023-05-04T19:34:53.383Z,11.04
2023-05-04T19:37:21.408Z,10.96
2023-05-04T19:39:50.159Z,10.90
2023-05-04T19:42:18.093Z,10.84
2023-05-04T19:44:46.419Z,10.82
2023-05-04T19:47:14.412Z,10.81
2023-05-04T19:49:42.297Z,10.83
2023-05-04T19:52:10.205Z,10.87
2023-05-04T19:54:41.233Z,10.92
2023-05-04T19:57:10.084Z,10.95
2023-05-04T19:59:38.249Z,10.99
2023-05-04T20:02:07.236Z,11.04
2023-05-04T20:04:35.445Z,11.14
2023-05-04T20:07:03.621Z,11.21
2023-05-04T20:09:31.739Z,11.29
2023-05-04T20:11:59.632Z,11.32
2023-05-04T20:14:27.535Z,11.37
2023-05-04T20:16:55.986Z,11.43
2023-05-04T20:19:24.205Z,11.51
2023-05-04T20:21:52.286Z,11.57
2023-05-04T20:24:20.653Z,11.62
2023-05-04T20:26:48.735Z,11.67
2023-05-04T20:29:16.947Z,11.70
2023-05-04T20:31:44.931Z,11.68
2023-05-04T20:34:13.380Z,11.67
2023-05-04T20:36:41.372Z,11.70
2023-05-04T20:39:10.279Z,11.66
2023-05-04T20:41:38.377Z,11.58
2023-05-04T20:44:06.827Z,11.59
2023-05-04T20:46:35.149Z,11.45
2023-05-04T20:49:03.717Z,11.43
2023-05-04T20:51:32.629Z,11.43
2023-05-04T20:54:01.189Z,11.41
2023-05-04T20:56:29.171Z,11.39
2023-05-04T20:58:57.454Z,11.26
2023-05-04T21:01:25.804Z,10.92
2023-05-04T21:03:53.875Z,10.86
2023-05-04T21:06:23.027Z,10.88
2023-05-04T21:08:51.400Z,10.88
2023-05-04T21:11:19.370Z,10.93
2023-05-04T21:13:47.456Z,10.98
2023-05-04T21:16:15.459Z,10.85
2023-05-04T21:18:45.061Z,10.61
2023-05-04T21:21:13.035Z,10.54
2023-05-04T21:23:41.521Z,10.56
2023-05-04T21:26:09.495Z,10.57
2023-05-04T21:28:37.569Z,10.67
2023-05-04T21:31:09.193Z,10.67
2023-05-04T21:33:37.192Z,10.60
2023-05-04T21:36:14.913Z,10.64
2023-05-04T21:38:43.040Z,10.74
2023-05-04T21:41:14.648Z,10.76
2023-05-04T21:43:43.348Z,10.75
2023-05-04T21:46:12.880Z,10.67
2023-05-04T21:48:41.219Z,10.54
2023-05-04T21:51:09.220Z,10.54
2023-05-04T21:53:37.403Z,10.59
2023-05-04T21:56:08.923Z,10.56
2023-05-04T21:58:39.644Z,10.57
2023-05-04T22:01:08.494Z,10.60
2023-05-04T22:03:36.955Z,10.53
2023-05-04T22:06:06.569Z,10.49
2023-05-04T22:08:35.606Z,10.49
2023-05-04T22:11:03.668Z,10.53
2023-05-04T22:13:31.731Z,10.57
2023-05-04T22:15:59.942Z,10.58
2023-05-04T22:18:27.909Z,10.52
2023-05-04T22:20:55.889Z,10.53
2023-05-04T22:23:23.873Z,10.59
2023-05-04T22:25:52.070Z,10.61
2023-05-04T22:28:19.967Z,10.62
2023-05-04T22:30:47.969Z,10.57
2023-05-04T22:33:16.139Z,10.59
2023-05-04T22:35:44.300Z,10.57
2023-05-04T22:38:14.387Z,10.61
2023-05-04T22:40:45.247Z,10.61
2023-05-04T22:43:13.114Z,10.62
2023-05-04T22:45:41.589Z,10.58
2023-05-04T22:48:09.978Z,10.54
2023-05-04T22:50:37.957Z,10.54
2023-05-04T22:53:06.093Z,10.54
2023-05-04T22:55:34.415Z,10.49
2023-05-04T22:58:02.522Z,10.48
2023-05-04T23:00:30.586Z,10.40
2023-05-04T23:02:59.158Z,10.37
2023-05-04T23:05:28.055Z,10.25
2023-05-04T23:07:56.141Z,10.24
2023-05-04T23:10:24.035Z,10.22
2023-05-04T23:12:52.008Z,10.13
2023-05-04T23:15:20.071Z,10.10
2023-05-04T23:17:48.373Z,10.00
2023-05-04T23:20:17.029Z,10.03
2023-05-04T23:22:45.078Z,10.03
2023-05-04T23:25:12.968Z,10.02
2023-05-04T23:27:40.926Z,10.00
2023-05-04T23:30:09.852Z,9.99
2023-05-04T23:32:38.242Z,9.96
2023-05-04T23:35:07.689Z,9.98
2023-05-04T23:37:35.567Z,9.97
2023-05-04T23:40:03.803Z,10.01
2023-05-04T23:42:31.988Z,10.01
2023-05-04T23:44:59.922Z,9.98
2023-05-04T23:47:27.996Z,10.00
2023-05-04T23:49:56.186Z,10.04
2023-05-04T23:52:24.051Z,10.04
2023-05-04T23:54:55.002Z,10.02
2023-05-04T23:57:22.999Z,10.01
2023-05-04T23:59:52.503Z,9.95
